Time;durP1;ratioP1;P1;durP2;ratioP2;P2;SDS_P1;SDS_P2;PMS_P1;PMS_P2;Temp;Humidity;BMP_temperature;BMP_pressure;BME280_temperature;BME280_humidity;BME280_pressure;Samples;Min_cycle;Max_cycle;Signal;HPM_P1;HPM_P2
2022/01/28 00:00:30;;;;;;;3.40;2.00;;;3.90;99.90;;;;;;8384589;28;20187;-65
2022/01/28 00:04:31;;;;;;;4.73;1.80;;;3.80;99.90;;;;;;8380385;28;20173;-66
2022/01/28 00:08:32;;;;;;;4.60;1.40;;;3.60;99.90;;;;;;8397591;28;20192;-66
2022/01/28 00:12:35;;;;;;;4.97;1.77;;;3.40;99.90;;;;;;8393115;28;20238;-66
2022/01/28 00:17:03;;;;;;;4.03;1.67;;;3.30;99.90;;;;;;8386203;28;20202;-65
2022/01/28 00:41:59;;;;;;;4.60;1.30;;;3.80;99.90;;;;;;8396193;28;20242;-65
2022/01/28 00:46:00;;;;;;;4.73;1.10;;;3.90;99.90;;;;;;8420925;28;20195;-65
2022/01/28 00:50:01;;;;;;;8.27;1.70;;;3.90;99.90;;;;;;8421574;28;20208;-67
2022/01/28 00:54:02;;;;;;;4.10;1.50;;;3.90;99.90;;;;;;8413493;28;20215;-65
2022/01/28 00:58:03;;;;;;;2.93;1.20;;;3.90;99.90;;;;;;8389827;28;20181;-66
2022/01/28 01:02:04;;;;;;;2.63;0.73;;;4.00;99.90;;;;;;8402812;28;20281;-66
2022/01/28 01:06:05;;;;;;;2.77;1.30;;;4.10;99.90;;;;;;8409505;28;20192;-66
2022/01/28 01:10:08;;;;;;;4.10;1.20;;;4.10;99.90;;;;;;8388193;28;20389;-66
2022/01/28 01:14:09;;;;;;;6.57;1.30;;;4.20;99.90;;;;;;8387857;28;20274;-66
2022/01/28 01:22:11;;;;;;;4.93;1.03;;;4.10;99.90;;;;;;8403746;28;20209;-66
2022/01/28 01:26:14;;;;;;;3.57;1.10;;;4.00;99.90;;;;;;8389091;28;20181;-65
2022/01/28 01:30:17;;;;;;;2.17;1.17;;;3.90;99.90;;;;;;8385760;28;20185;-66
2022/01/28 01:34:21;;;;;;;4.10;1.30;;;3.90;99.90;;;;;;8395929;28;20211;-65
2022/01/28 01:38:25;;;;;;;4.17;1.37;;;3.90;99.90;;;;;;8382868;28;20258;-65
2022/01/28 01:42:39;;;;;;;5.10;1.30;;;4.00;99.90;;;;;;8401688;28;20184;-65
2022/01/28 01:55:00;;;;;;;7.37;1.83;;;4.10;99.90;;;;;;8378751;28;20212;-64
2022/01/28 01:59:01;;;;;;;3.57;1.20;;;4.20;99.90;;;;;;8380885;28;20212;-67
2022/01/28 02:03:02;;;;;;;4.50;0.70;;;4.20;99.90;;;;;;8411181;28;20191;-65
2022/01/28 02:07:04;;;;;;;3.03;1.23;;;4.30;99.90;;;;;;8389197;28;20188;-66
2022/01/28 02:11:05;;;;;;;6.03;1.03;;;4.20;99.90;;;;;;8399029;28;20200;-65
2022/01/28 02:15:06;;;;;;;8.83;1.30;;;4.20;99.90;;;;;;8388218;28;20213;-64
2022/01/28 02:19:07;;;;;;;10.43;1.77;;;4.10;99.90;;;;;;8388434;28;20177;-65
2022/01/28 02:23:08;;;;;;;4.67;1.00;;;4.00;99.90;;;;;;8389303;28;20181;-63
2022/01/28 02:27:11;;;;;;;1.97;1.00;;;3.80;99.90;;;;;;8386860;28;20192;-69
2022/01/28 02:31:13;;;;;;;8.67;1.87;;;3.70;99.90;;;;;;8403000;28;20226;-66
2022/01/28 02:35:13;;;;;;;6.20;1.30;;;3.70;99.90;;;;;;8391870;28;20237;-66
2022/01/28 02:39:14;;;;;;;8.80;1.53;;;3.60;99.90;;;;;;8410811;28;20174;-66
2022/01/28 02:47:30;;;;;;;4.80;1.67;;;3.50;99.90;;;;;;8420547;28;20181;-65
2022/01/28 02:51:31;;;;;;;6.20;1.90;;;3.50;99.90;;;;;;8407733;28;20231;-65
2022/01/28 02:55:37;;;;;;;7.40;1.67;;;3.50;99.90;;;;;;8405041;28;20173;-64
2022/01/28 02:59:38;;;;;;;5.20;1.20;;;3.50;99.90;;;;;;8377475;28;20182;-64
2022/01/28 03:03:40;;;;;;;12.00;1.50;;;3.50;99.90;;;;;;8391685;28;20271;-65
2022/01/28 03:07:41;;;;;;;12.23;1.87;;;3.50;99.90;;;;;;8387913;28;20264;-65
2022/01/28 03:11:57;;;;;;;8.33;1.40;;;3.40;99.90;;;;;;8396870;28;20249;-65
2022/01/28 03:16:11;;;;;;;5.20;1.77;;;3.40;99.90;;;;;;8406180;28;20196;-65
2022/01/28 03:24:19;;;;;;;8.37;1.83;;;3.40;99.90;;;;;;8387034;28;20249;-65
2022/01/28 03:28:20;;;;;;;5.73;1.60;;;3.40;99.90;;;;;;8372062;28;20186;-65
2022/01/28 03:32:21;;;;;;;5.63;1.50;;;3.30;99.90;;;;;;8387010;28;20208;-66
2022/01/28 03:36:23;;;;;;;9.60;2.20;;;3.30;99.90;;;;;;8392549;28;20181;-65
2022/01/28 03:40:23;;;;;;;7.50;1.40;;;3.30;99.90;;;;;;8404664;28;20204;-65
2022/01/28 03:44:24;;;;;;;4.93;1.30;;;3.30;99.90;;;;;;8409383;28;20177;-66
2022/01/28 03:48:25;;;;;;;8.90;1.47;;;3.30;99.90;;;;;;8419017;28;20185;-63
2022/01/28 03:52:26;;;;;;;6.90;1.53;;;3.30;99.90;;;;;;8400548;28;20212;-66
2022/01/28 03:56:27;;;;;;;6.30;1.47;;;3.40;99.90;;;;;;8380240;28;20177;-65
2022/01/28 04:00:30;;;;;;;7.63;1.10;;;3.40;99.90;;;;;;8372756;28;20405;-64
2022/01/28 04:12:52;;;;;;;5.77;1.63;;;3.10;99.90;;;;;;8396769;28;20308;-65
2022/01/28 04:20:54;;;;;;;10.60;1.37;;;3.10;99.90;;;;;;8373829;28;20196;-65
2022/01/28 04:24:55;;;;;;;4.27;1.10;;;3.10;99.90;;;;;;8409913;28;20185;-65
2022/01/28 04:28:55;;;;;;;5.23;1.50;;;3.10;99.90;;;;;;8397373;28;20189;-64
2022/01/28 04:32:57;;;;;;;5.53;1.70;;;3.20;99.90;;;;;;8406129;28;20213;-65
2022/01/28 04:49:48;;;;;;;5.20;1.30;;;3.40;99.90;;;;;;8392682;28;20213;-65
2022/01/28 05:23:28;;;;;;;7.90;1.37;;;3.50;99.90;;;;;;8405846;28;20206;-65
2022/01/28 05:27:43;;;;;;;5.73;1.27;;;3.60;99.90;;;;;;8404858;28;20201;-64
2022/01/28 05:31:47;;;;;;;8.37;1.77;;;3.50;99.90;;;;;;8393992;28;20198;-64
2022/01/28 05:35:48;;;;;;;4.43;1.00;;;3.30;99.90;;;;;;8383783;28;20186;-67
2022/01/28 05:39:48;;;;;;;7.47;1.80;;;3.20;99.90;;;;;;8379359;28;20363;-65
2022/01/28 05:43:49;;;;;;;7.90;1.30;;;3.10;99.90;;;;;;8409881;28;20184;-65
2022/01/28 05:47:50;;;;;;;8.13;1.43;;;3.00;99.90;;;;;;8421872;28;20180;-65
2022/01/28 05:51:51;;;;;;;6.93;1.50;;;2.90;99.90;;;;;;8399063;28;20243;-65
2022/01/28 05:55:52;;;;;;;7.83;1.67;;;2.80;99.90;;;;;;8390101;28;20184;-66
2022/01/28 05:59:52;;;;;;;8.30;1.87;;;2.80;99.90;;;;;;8381082;28;20181;-65
2022/01/28 06:03:53;;;;;;;5.50;1.83;;;2.90;99.90;;;;;;8394854;28;20205;-67
2022/01/28 06:07:54;;;;;;;8.13;1.97;;;3.00;99.90;;;;;;8378315;28;20238;-65
2022/01/28 06:11:55;;;;;;;11.73;1.63;;;3.00;99.90;;;;;;8402175;28;20537;-65
2022/01/28 06:15:57;;;;;;;8.93;1.73;;;3.10;99.90;;;;;;8384582;28;20201;-66
2022/01/28 06:19:58;;;;;;;7.43;2.13;;;3.20;99.90;;;;;;8393670;28;20191;-65
2022/01/28 06:23:59;;;;;;;8.97;2.10;;;3.20;99.90;;;;;;8386113;28;20208;-65
2022/01/28 06:28:00;;;;;;;7.60;1.77;;;3.20;99.90;;;;;;8368948;28;20187;-64
2022/01/28 06:32:00;;;;;;;6.77;1.47;;;3.30;99.90;;;;;;8393252;28;20209;-66
2022/01/28 06:36:03;;;;;;;4.93;1.30;;;3.30;99.90;;;;;;8394795;28;20326;-64
2022/01/28 06:40:10;;;;;;;13.53;1.53;;;3.30;99.90;;;;;;8406288;28;20177;-66
2022/01/28 06:44:11;;;;;;;9.37;2.33;;;3.40;99.90;;;;;;8394121;28;20189;-65
2022/01/28 06:48:13;;;;;;;11.10;2.37;;;3.40;99.90;;;;;;8421884;28;20185;-65
2022/01/28 06:52:14;;;;;;;6.50;1.60;;;3.40;99.90;;;;;;8406838;28;20277;-65
2022/01/28 06:56:15;;;;;;;10.33;1.50;;;3.50;99.90;;;;;;8387201;28;20259;-67
2022/01/28 07:00:16;;;;;;;4.70;1.23;;;3.50;99.90;;;;;;8379741;28;20641;-66
2022/01/28 07:04:17;;;;;;;6.30;1.47;;;3.60;99.90;;;;;;8393544;28;20199;-67
2022/01/28 07:08:17;;;;;;;9.20;1.53;;;3.60;99.90;;;;;;8394894;28;20196;-68
2022/01/28 07:12:19;;;;;;;7.63;1.73;;;3.50;99.90;;;;;;8389957;28;20209;-67
2022/01/28 07:16:20;;;;;;;6.40;1.97;;;3.50;99.90;;;;;;8400286;28;20291;-68
2022/01/28 07:20:21;;;;;;;5.87;1.70;;;3.50;99.90;;;;;;8386506;28;20181;-69
2022/01/28 07:24:22;;;;;;;9.57;1.80;;;3.50;99.90;;;;;;8391766;28;20196;-69
2022/01/28 07:28:25;;;;;;;7.97;1.63;;;3.50;99.90;;;;;;8394847;28;20198;-68
2022/01/28 07:32:26;;;;;;;5.90;1.80;;;3.60;99.90;;;;;;8382558;28;20215;-68
2022/01/28 07:36:27;;;;;;;5.50;1.37;;;3.60;99.90;;;;;;8379346;28;20480;-69
2022/01/28 07:40:31;;;;;;;8.97;2.03;;;3.60;99.90;;;;;;8403846;28;20177;-69
2022/01/28 07:44:32;;;;;;;6.63;1.70;;;3.60;99.90;;;;;;8392865;28;20196;-68
2022/01/28 07:48:33;;;;;;;5.33;1.50;;;3.70;99.90;;;;;;8399328;28;20231;-67
2022/01/28 07:52:34;;;;;;;6.37;1.63;;;3.70;99.90;;;;;;8387784;28;20212;-68
2022/01/28 07:56:35;;;;;;;9.93;1.93;;;3.80;99.90;;;;;;8390308;28;20240;-68
2022/01/28 08:00:36;;;;;;;7.50;1.40;;;3.80;99.90;;;;;;8402702;28;20252;-67
2022/01/28 08:04:38;;;;;;;8.07;1.50;;;3.80;99.90;;;;;;8403567;28;20300;-67
2022/01/28 08:08:39;;;;;;;5.53;1.90;;;3.90;99.90;;;;;;8404209;28;20235;-68
2022/01/28 08:12:45;;;;;;;7.97;1.87;;;3.90;99.90;;;;;;8391503;28;20637;-67
2022/01/28 08:16:46;;;;;;;13.43;2.17;;;4.00;99.90;;;;;;8410793;28;20315;-68
2022/01/28 08:20:46;;;;;;;9.67;1.43;;;3.90;99.90;;;;;;8391452;28;20176;-68
2022/01/28 08:24:48;;;;;;;11.07;1.53;;;3.90;99.90;;;;;;8393974;28;20193;-69
2022/01/28 08:28:49;;;;;;;4.83;1.30;;;3.90;99.90;;;;;;8392549;28;20252;-68
2022/01/28 08:32:52;;;;;;;4.57;1.50;;;3.90;99.90;;;;;;8394434;28;20293;-68
2022/01/28 08:36:53;;;;;;;11.57;2.17;;;3.90;99.90;;;;;;8398060;28;20238;-67
2022/01/28 08:40:56;;;;;;;3.53;1.83;;;3.90;99.90;;;;;;8396542;28;20233;-68
2022/01/28 08:44:58;;;;;;;12.23;2.63;;;3.90;99.90;;;;;;8414572;28;20185;-66
2022/01/28 08:48:59;;;;;;;7.07;2.33;;;3.90;99.90;;;;;;8423162;28;20180;-67
2022/01/28 08:53:00;;;;;;;9.83;2.10;;;3.90;99.90;;;;;;8410850;28;20276;-67
2022/01/28 08:57:00;;;;;;;7.23;1.80;;;3.90;99.90;;;;;;8387043;28;20245;-68
2022/01/28 09:01:02;;;;;;;10.10;2.50;;;4.00;99.90;;;;;;8400125;28;20206;-67
2022/01/28 09:05:02;;;;;;;8.13;2.17;;;4.00;99.90;;;;;;8389081;28;20510;-67
2022/01/28 09:09:04;;;;;;;11.27;2.23;;;3.90;99.90;;;;;;8393348;28;20262;-68
2022/01/28 09:17:07;;;;;;;7.80;1.90;;;4.00;99.90;;;;;;8401248;28;20324;-68
2022/01/28 09:21:08;;;;;;;13.33;3.10;;;4.10;99.90;;;;;;8402442;28;20236;-67
2022/01/28 09:25:09;;;;;;;11.83;2.53;;;4.00;99.90;;;;;;8389151;28;20238;-70
2022/01/28 09:29:10;;;;;;;10.07;2.10;;;4.00;99.90;;;;;;8393742;28;20222;-67
2022/01/28 09:33:11;;;;;;;9.07;2.30;;;4.00;99.90;;;;;;8389514;28;20205;-66
2022/01/28 09:37:13;;;;;;;14.47;2.33;;;3.90;99.90;;;;;;8382105;28;20184;-68
2022/01/28 09:41:15;;;;;;;7.73;2.10;;;3.90;99.90;;;;;;8414907;28;20252;-68
2022/01/28 09:45:20;;;;;;;12.10;2.37;;;3.90;99.90;;;;;;8379757;28;20182;-67
2022/01/28 09:49:21;;;;;;;4.13;1.67;;;3.90;99.90;;;;;;8381119;28;20196;-68
2022/01/28 09:53:22;;;;;;;11.80;3.03;;;3.90;99.90;;;;;;8382871;28;20244;-67
2022/01/28 09:57:22;;;;;;;8.37;2.40;;;4.00;99.90;;;;;;8383252;28;20189;-70
2022/01/28 10:01:24;;;;;;;8.07;2.17;;;4.00;99.90;;;;;;8393738;28;20215;-67
2022/01/28 10:05:50;;;;;;;10.53;2.47;;;4.10;99.90;;;;;;8381579;28;20213;-69
2022/01/28 10:10:00;;;;;;;11.90;2.30;;;4.10;99.90;;;;;;8400804;28;20187;-69
2022/01/28 10:14:10;;;;;;;11.77;2.67;;;4.10;99.90;;;;;;8393240;28;20201;-67
2022/01/28 10:18:11;;;;;;;12.23;2.43;;;4.20;99.90;;;;;;8403873;28;20211;-67
2022/01/28 10:22:19;;;;;;;10.03;1.83;;;4.20;99.90;;;;;;8391358;28;20189;-69
2022/01/28 10:26:27;;;;;;;15.27;2.93;;;4.20;99.90;;;;;;8389413;28;20185;-68
2022/01/28 10:30:30;;;;;;;10.00;2.43;;;4.20;99.90;;;;;;8407884;28;20183;-67
2022/01/28 10:34:38;;;;;;;11.47;2.83;;;4.20;99.90;;;;;;8419182;28;20221;-68
2022/01/28 10:38:43;;;;;;;10.17;2.63;;;4.20;99.90;;;;;;8407651;28;20177;-68
2022/01/28 10:42:52;;;;;;;10.80;2.90;;;4.20;99.90;;;;;;8404115;28;20201;-67
2022/01/28 10:47:06;;;;;;;16.13;2.93;;;4.20;99.90;;;;;;8420706;28;20188;-67
2022/01/28 10:51:07;;;;;;;6.83;2.03;;;4.30;99.90;;;;;;8377453;28;20185;-68
2022/01/28 11:05:50;;;;;;;9.40;2.40;;;4.30;99.90;;;;;;8379336;28;20200;-67
2022/01/28 11:09:51;;;;;;;15.60;2.87;;;4.40;99.90;;;;;;8387308;28;20210;-70
2022/01/28 11:13:52;;;;;;;6.00;2.20;;;4.30;99.90;;;;;;8389507;28;20209;-66
2022/01/28 11:17:54;;;;;;;12.40;2.20;;;4.30;99.90;;;;;;8401070;28;20208;-66
2022/01/28 11:22:11;;;;;;;10.30;2.90;;;4.30;99.90;;;;;;8395640;28;20181;-67
2022/01/28 11:26:25;;;;;;;12.07;3.00;;;4.30;99.90;;;;;;8418284;28;20222;-67
2022/01/28 11:30:28;;;;;;;14.37;2.80;;;4.30;99.90;;;;;;8396382;28;20181;-67
2022/01/28 11:34:31;;;;;;;7.27;2.33;;;4.40;99.90;;;;;;8419056;28;20228;-67
2022/01/28 11:38:36;;;;;;;11.90;2.50;;;4.40;37.60;;;;;;8393161;28;20181;-66
2022/01/28 11:42:37;;;;;;;12.23;2.50;;;4.50;99.90;;;;;;8392849;28;20195;-68
2022/01/28 11:46:44;;;;;;;12.10;2.77;;;4.50;1.00;;;;;;8419769;28;20271;-67
2022/01/28 11:50:51;;;;;;;6.47;2.10;;;4.50;99.90;;;;;;8391429;28;20610;-67
2022/01/28 11:54:53;;;;;;;11.07;2.63;;;4.50;99.90;;;;;;8389068;28;20205;-67
2022/01/28 11:59:07;;;;;;;10.63;2.50;;;4.50;99.90;;;;;;8388226;28;20234;-68
2022/01/28 12:03:30;;;;;;;12.30;2.80;;;4.60;99.90;;;;;;8416784;28;20188;-67
2022/01/28 12:07:33;;;;;;;14.37;2.50;;;4.60;1.00;;;;;;8376609;28;20181;-67
2022/01/28 12:11:44;;;;;;;12.93;2.03;;;4.60;99.90;;;;;;8389630;28;20203;-68
2022/01/28 12:15:59;;;;;;;12.20;2.10;;;4.60;1.00;;;;;;8413460;28;20211;-67
2022/01/28 12:20:14;;;;;;;9.87;2.30;;;4.60;1.00;;;;;;8404530;28;20253;-67
2022/01/28 12:24:22;;;;;;;10.33;2.00;;;4.60;99.90;;;;;;8391687;28;20208;-68
2022/01/28 12:28:54;;;;;;;7.80;2.33;;;4.70;1.00;;;;;;8391376;28;20184;-68
2022/01/28 12:32:59;;;;;;;8.57;2.30;;;4.70;99.90;;;;;;8418036;28;20208;-68
2022/01/28 12:37:03;;;;;;;7.20;2.50;;;4.70;1.00;;;;;;8410386;28;20619;-69
2022/01/28 12:41:08;;;;;;;7.40;2.50;;;4.60;1.00;;;;;;8396138;28;20176;-68
2022/01/28 12:45:09;;;;;;;11.50;2.60;;;4.60;1.00;;;;;;8415155;28;20192;-68
2022/01/28 12:49:10;;;;;;;10.30;2.30;;;4.60;99.90;;;;;;8416652;28;20256;-69
2022/01/28 12:53:13;;;;;;;10.53;1.77;;;4.60;99.90;;;;;;8385636;28;20221;-68
2022/01/28 12:57:17;;;;;;;6.43;2.30;;;4.60;99.90;;;;;;8381885;28;20182;-69
2022/01/28 13:01:20;;;;;;;8.87;2.70;;;4.50;99.90;;;;;;8402350;28;20396;-68
2022/01/28 13:05:37;;;;;;;11.50;2.97;;;4.50;99.90;;;;;;8396956;28;20189;-68
2022/01/28 13:09:38;;;;;;;11.83;2.37;;;4.50;1.00;;;;;;8389902;28;20212;-68
2022/01/28 13:13:50;;;;;;;12.97;3.07;;;4.50;99.90;;;;;;8393522;28;20292;-70
2022/01/28 13:17:58;;;;;;;7.53;2.10;;;4.60;99.90;;;;;;8407359;28;20609;-68
2022/01/28 13:21:59;;;;;;;13.10;3.10;;;4.50;1.00;;;;;;8389731;28;20188;-72
2022/01/28 13:26:06;;;;;;;13.57;2.90;;;4.50;91.40;;;;;;8388853;28;20576;-67
2022/01/28 13:30:16;;;;;;;11.23;2.80;;;4.50;99.90;;;;;;8404319;28;20192;-69
2022/01/28 13:34:17;;;;;;;8.63;1.90;;;4.50;99.90;;;;;;8387146;28;20282;-69
2022/01/28 13:38:20;;;;;;;7.87;2.27;;;4.50;97.30;;;;;;8404701;28;20192;-69
2022/01/28 13:42:23;;;;;;;20.20;3.20;;;4.50;72.70;;;;;;8382027;28;20195;-68
2022/01/28 13:46:30;;;;;;;11.60;3.03;;;4.50;99.90;;;;;;8389634;28;20186;-69
2022/01/28 13:50:35;;;;;;;6.87;2.30;;;4.50;69.30;;;;;;8385835;28;20189;-67
2022/01/28 13:54:36;;;;;;;9.53;2.47;;;4.50;69.00;;;;;;8391981;28;20208;-67
2022/01/28 13:58:48;;;;;;;15.80;5.03;;;4.50;99.90;;;;;;8385861;28;20195;-67
2022/01/28 14:02:49;;;;;;;10.37;2.60;;;4.60;99.90;;;;;;8413320;28;20213;-68
2022/01/28 14:07:14;;;;;;;13.57;2.47;;;4.60;1.00;;;;;;8375928;28;20286;-66
2022/01/28 14:11:35;;;;;;;9.97;1.73;;;4.60;14.90;;;;;;8399424;28;20200;-67
2022/01/28 14:15:49;;;;;;;6.93;2.10;;;4.50;1.00;;;;;;8386230;28;20299;-66
2022/01/28 14:19:51;;;;;;;16.43;2.60;;;4.50;99.90;;;;;;8395380;28;20192;-67
2022/01/28 14:23:52;;;;;;;8.03;1.80;;;4.60;99.90;;;;;;8389029;28;20568;-67
2022/01/28 14:28:12;;;;;;;10.70;1.97;;;4.60;1.00;;;;;;8379294;28;20192;-66
2022/01/28 14:32:22;;;;;;;6.83;1.73;;;4.60;99.90;;;;;;8397793;28;20299;-66
2022/01/28 14:36:23;;;;;;;9.13;1.97;;;4.60;99.90;;;;;;8392525;28;20184;-67
2022/01/28 14:40:24;;;;;;;8.87;3.77;;;4.60;99.90;;;;;;8384609;28;20186;-66
2022/01/28 14:44:24;;;;;;;8.90;2.00;;;4.60;99.90;;;;;;8399638;28;20184;-66
2022/01/28 14:48:28;;;;;;;10.37;3.23;;;4.60;1.00;;;;;;8387071;28;20189;-66
2022/01/28 14:52:30;;;;;;;5.87;2.10;;;4.60;99.90;;;;;;8392115;28;20211;-67
2022/01/28 14:56:30;;;;;;;7.80;2.17;;;4.60;22.30;;;;;;8379727;28;20239;-66
2022/01/28 15:00:31;;;;;;;5.20;1.73;;;4.60;99.90;;;;;;8385457;28;20287;-66
2022/01/28 15:04:32;;;;;;;12.20;2.60;;;4.70;99.90;;;;;;8384362;28;20242;-66
2022/01/28 15:08:39;;;;;;;10.80;2.23;;;4.70;1.00;;;;;;8402457;28;20582;-66
2022/01/28 15:12:40;;;;;;;12.73;2.17;;;4.60;99.90;;;;;;8394038;28;20241;-66
2022/01/28 15:16:42;;;;;;;4.07;1.90;;;4.60;1.00;;;;;;8420282;28;20228;-66
2022/01/28 15:20:43;;;;;;;7.67;1.70;;;4.50;99.90;;;;;;8393924;28;20201;-67
2022/01/28 15:24:44;;;;;;;11.80;2.87;;;4.40;1.00;;;;;;8385366;28;20193;-66
2022/01/28 15:29:09;;;;;;;9.63;2.57;;;4.30;99.90;;;;;;8374915;28;20185;-67
2022/01/28 15:37:30;;;;;;;8.27;2.50;;;4.20;92.80;;;;;;8404426;28;20215;-66
2022/01/28 15:41:30;;;;;;;6.03;2.03;;;4.20;99.90;;;;;;8389915;28;20187;-67
2022/01/28 15:45:33;;;;;;;10.67;2.50;;;4.20;42.20;;;;;;8411970;28;20221;-67
2022/01/28 15:49:34;;;;;;;8.77;1.97;;;4.20;1.00;;;;;;8408005;28;20184;-66
2022/01/28 15:53:35;;;;;;;8.50;2.10;;;4.10;99.90;;;;;;8396028;28;20292;-67
2022/01/28 15:57:36;;;;;;;12.63;1.97;;;4.00;99.90;;;;;;8381750;28;20173;-67
2022/01/28 16:01:37;;;;;;;13.10;2.50;;;4.00;99.90;;;;;;8400570;28;20173;-67
2022/01/28 16:05:37;;;;;;;10.47;2.70;;;4.00;21.40;;;;;;8399375;28;20271;-66
2022/01/28 16:09:40;;;;;;;10.63;2.40;;;3.80;1.00;;;;;;8395950;28;20193;-66
2022/01/28 16:17:42;;;;;;;8.67;2.07;;;3.80;1.00;;;;;;8398814;28;20198;-63
2022/01/28 16:21:43;;;;;;;10.10;2.00;;;3.70;1.00;;;;;;8402950;28;20227;-64
2022/01/28 16:25:44;;;;;;;8.93;2.07;;;3.70;99.90;;;;;;8366566;28;20192;-65
2022/01/28 16:29:45;;;;;;;10.20;2.00;;;3.70;13.80;;;;;;8406682;28;20217;-64
2022/01/28 16:33:46;;;;;;;4.73;2.00;;;3.70;99.90;;;;;;8423495;28;20210;-64
2022/01/28 16:37:47;;;;;;;7.67;3.03;;;3.60;99.90;;;;;;8399193;28;20208;-66
2022/01/28 16:41:50;;;;;;;9.67;1.87;;;3.60;19.70;;;;;;8403773;28;20174;-65
2022/01/28 16:45:57;;;;;;;5.87;2.27;;;3.60;99.90;;;;;;8414556;28;20170;-64
2022/01/28 16:49:58;;;;;;;5.23;1.93;;;3.50;99.90;;;;;;8386581;28;20196;-65
2022/01/28 16:54:00;;;;;;;8.63;2.00;;;3.50;99.90;;;;;;8409303;28;20235;-65
2022/01/28 16:58:01;;;;;;;9.33;2.03;;;3.60;99.90;;;;;;8391683;28;20177;-66
2022/01/28 17:02:02;;;;;;;9.60;2.20;;;3.70;99.90;;;;;;8386109;28;20174;-65
2022/01/28 17:06:05;;;;;;;10.70;2.23;;;3.70;99.90;;;;;;8390073;28;20191;-64
2022/01/28 17:10:10;;;;;;;7.17;1.57;;;3.80;99.90;;;;;;8410770;28;20172;-65
2022/01/28 17:14:12;;;;;;;11.53;2.20;;;3.70;99.90;;;;;;8406081;28;20196;-64
2022/01/28 17:18:12;;;;;;;8.77;2.63;;;3.60;1.00;;;;;;8382281;28;20289;-64
2022/01/28 17:22:14;;;;;;;7.43;2.10;;;3.60;99.90;;;;;;8396588;28;20186;-65
2022/01/28 17:26:16;;;;;;;5.70;2.37;;;3.50;99.90;;;;;;8386295;28;20332;-66
2022/01/28 17:30:18;;;;;;;9.13;3.27;;;3.60;99.90;;;;;;8397849;28;20241;-65
2022/01/28 17:34:18;;;;;;;11.07;4.30;;;3.60;99.90;;;;;;8423497;28;20237;-64
2022/01/28 17:38:26;;;;;;;14.23;4.10;;;3.60;99.90;;;;;;8391239;28;20306;-65
2022/01/28 17:42:27;;;;;;;5.80;3.00;;;3.60;99.90;;;;;;8394865;28;20177;-64
2022/01/28 17:46:28;;;;;;;9.17;2.10;;;3.60;1.00;;;;;;8422471;28;20255;-64
2022/01/28 17:50:30;;;;;;;8.03;2.77;;;3.60;99.90;;;;;;8406671;28;20238;-64
2022/01/28 17:54:31;;;;;;;9.00;2.47;;;3.60;1.00;;;;;;8393448;28;20233;-66
2022/01/28 17:58:32;;;;;;;11.40;2.40;;;3.50;1.00;;;;;;8380240;28;20181;-63
2022/01/28 18:02:34;;;;;;;8.20;2.80;;;3.40;99.90;;;;;;8414740;28;20185;-65
2022/01/28 18:06:38;;;;;;;11.67;2.90;;;3.20;99.90;;;;;;8394100;28;20875;-65
2022/01/28 18:10:38;;;;;;;11.93;2.57;;;3.20;99.90;;;;;;8401717;28;20280;-63
2022/01/28 18:14:40;;;;;;;9.37;2.53;;;3.10;50.50;;;;;;8380298;28;20205;-65
2022/01/28 18:18:41;;;;;;;10.63;2.20;;;3.00;99.90;;;;;;8387359;28;20193;-64
2022/01/28 18:22:42;;;;;;;6.93;1.97;;;2.90;1.00;;;;;;8399993;28;20180;-65
2022/01/28 18:26:43;;;;;;;8.07;2.13;;;2.80;1.00;;;;;;8396419;28;20193;-63
2022/01/28 18:30:44;;;;;;;10.40;2.83;;;2.70;99.90;;;;;;8389880;28;20216;-64
2022/01/28 18:34:45;;;;;;;6.77;2.53;;;2.60;99.90;;;;;;8387446;28;20246;-64
2022/01/28 18:38:49;;;;;;;9.43;2.43;;;2.50;99.90;;;;;;8408159;28;20169;-64
2022/01/28 18:42:53;;;;;;;10.03;2.77;;;2.40;1.00;;;;;;8399804;28;20189;-65
2022/01/28 18:47:07;;;;;;;15.80;2.33;;;2.30;1.00;;;;;;8387045;28;20268;-64
2022/01/28 18:51:08;;;;;;;9.53;2.43;;;2.20;1.00;;;;;;8393720;28;20196;-64
2022/01/28 18:55:09;;;;;;;6.57;2.20;;;2.20;1.00;;;;;;8397343;28;20209;-63
2022/01/28 18:59:10;;;;;;;11.60;3.00;;;2.20;1.00;;;;;;8377349;28;20209;-64
2022/01/28 19:03:11;;;;;;;11.53;2.20;;;2.10;1.00;;;;;;8395245;28;20223;-65
2022/01/28 19:07:12;;;;;;;9.63;2.10;;;2.10;1.00;;;;;;8390727;28;20196;-63
2022/01/28 19:11:13;;;;;;;9.43;2.23;;;2.10;1.00;;;;;;8374560;28;20229;-64
2022/01/28 19:15:16;;;;;;;12.73;2.47;;;2.10;1.00;;;;;;8395998;28;20204;-65
2022/01/28 19:19:17;;;;;;;8.37;2.20;;;2.10;1.00;;;;;;8397958;28;20184;-64
2022/01/28 19:23:17;;;;;;;9.70;2.80;;;2.10;1.00;;;;;;8382265;28;20196;-66
2022/01/28 19:27:18;;;;;;;11.47;2.40;;;2.20;1.00;;;;;;8393289;28;20190;-66
2022/01/28 19:31:19;;;;;;;8.47;2.37;;;2.20;1.00;;;;;;8388811;28;20181;-64
2022/01/28 19:35:20;;;;;;;12.60;2.83;;;2.20;1.00;;;;;;8393881;28;20204;-65
2022/01/28 19:39:21;;;;;;;9.13;2.30;;;2.20;1.00;;;;;;8382564;28;20214;-65
2022/01/28 19:43:22;;;;;;;11.47;4.07;;;2.20;1.00;;;;;;8386154;28;20189;-65
2022/01/28 19:47:23;;;;;;;7.27;2.03;;;2.20;1.00;;;;;;8397615;28;20192;-64
2022/01/28 19:51:25;;;;;;;10.30;2.63;;;2.20;1.00;;;;;;8401368;28;20183;-65
2022/01/28 19:55:26;;;;;;;12.90;2.70;;;2.10;1.00;;;;;;8403423;28;20222;-65
2022/01/28 19:59:27;;;;;;;8.00;2.47;;;2.10;1.00;;;;;;8393138;28;20242;-65
2022/01/28 20:03:28;;;;;;;8.33;2.83;;;2.10;1.00;;;;;;8418785;28;20180;-65
2022/01/28 20:07:28;;;;;;;10.70;3.07;;;2.20;99.90;;;;;;8401349;28;20225;-65
2022/01/28 20:11:29;;;;;;;9.73;3.13;;;2.20;99.90;;;;;;8411706;28;20231;-65
2022/01/28 20:15:30;;;;;;;12.97;3.67;;;2.10;99.90;;;;;;8406883;28;20250;-64
2022/01/28 20:19:32;;;;;;;7.10;1.97;;;2.10;99.90;;;;;;8384099;28;20213;-63
2022/01/28 20:23:32;;;;;;;8.43;3.03;;;2.10;99.90;;;;;;8381067;28;20192;-65
2022/01/28 20:27:33;;;;;;;8.53;2.90;;;2.00;99.90;;;;;;8385700;28;20192;-64
2022/01/28 20:31:34;;;;;;;10.50;3.03;;;1.90;99.90;;;;;;8417113;28;20219;-65
2022/01/28 20:35:36;;;;;;;15.27;2.80;;;1.80;99.90;;;;;;8418105;28;20208;-63
2022/01/28 20:39:36;;;;;;;7.47;2.33;;;1.70;99.90;;;;;;8410820;28;20179;-66
2022/01/28 20:43:37;;;;;;;10.10;2.17;;;1.50;1.00;;;;;;8385176;28;20213;-64
2022/01/28 20:47:38;;;;;;;3.37;1.60;;;1.40;1.00;;;;;;8390775;28;20185;-65
2022/01/28 20:51:40;;;;;;;6.03;2.60;;;1.40;1.00;;;;;;8396734;28;20200;-64
2022/01/28 20:55:41;;;;;;;11.50;2.37;;;1.20;1.00;;;;;;8392554;28;20204;-63
2022/01/28 20:59:43;;;;;;;14.07;2.90;;;1.10;11.70;;;;;;8388684;28;20655;-63
2022/01/28 21:03:44;;;;;;;7.73;2.37;;;1.10;23.10;;;;;;8362106;28;20177;-63
2022/01/28 21:07:46;;;;;;;10.43;2.17;;;1.00;55.80;;;;;;8387000;28;20181;-63
2022/01/28 21:11:48;;;;;;;6.27;2.07;;;1.00;79.20;;;;;;8383014;28;20201;-65
2022/01/28 21:15:48;;;;;;;5.83;1.57;;;0.90;99.90;;;;;;8394466;28;20236;-66
2022/01/28 21:19:49;;;;;;;7.43;2.00;;;0.80;99.90;;;;;;8389471;28;20184;-63
2022/01/28 21:23:50;;;;;;;6.70;2.23;;;0.70;99.90;;;;;;8400508;28;20196;-63
2022/01/28 21:27:51;;;;;;;6.83;2.13;;;0.60;99.90;;;;;;8414600;28;20212;-64
2022/01/28 21:31:52;;;;;;;3.20;2.00;;;0.50;99.90;;;;;;8406534;28;20186;-65
2022/01/28 21:35:53;;;;;;;6.83;2.37;;;0.50;99.90;;;;;;8355512;28;20213;-64
2022/01/28 21:39:54;;;;;;;3.83;1.70;;;0.40;99.90;;;;;;8354604;28;20197;-64
2022/01/28 21:43:55;;;;;;;8.77;1.80;;;0.40;99.90;;;;;;8384158;28;20182;-65
2022/01/28 21:47:56;;;;;;;5.13;1.90;;;0.30;99.90;;;;;;8355581;28;20181;-64
2022/01/28 21:51:57;;;;;;;10.77;2.53;;;0.20;99.90;;;;;;8364223;28;20241;-63
2022/01/28 21:55:58;;;;;;;9.00;2.23;;;0.20;99.90;;;;;;8396640;28;20213;-64
2022/01/28 21:59:58;;;;;;;13.97;2.80;;;0.10;99.90;;;;;;8392956;28;20284;-64
2022/01/28 22:03:59;;;;;;;7.63;2.60;;;0.10;99.90;;;;;;8412192;28;20193;-63
2022/01/28 22:08:00;;;;;;;10.17;3.20;;;0.10;99.90;;;;;;8389505;28;20260;-65
2022/01/28 22:12:01;;;;;;;7.63;3.20;;;0.00;99.90;;;;;;8381893;28;20229;-64
2022/01/28 22:16:04;;;;;;;13.13;3.10;;;0.00;99.90;;;;;;8380379;28;20197;-64
2022/01/28 22:20:06;;;;;;;7.97;3.30;;;0.00;99.90;;;;;;8401025;28;20235;-64
2022/01/28 22:24:07;;;;;;;12.80;3.07;;;0.10;99.90;;;;;;8382200;28;20469;-63
2022/01/28 22:28:07;;;;;;;8.10;2.90;;;0.20;99.90;;;;;;8373108;28;20185;-64
2022/01/28 22:32:08;;;;;;;17.57;3.03;;;0.20;99.90;;;;;;8392555;28;20199;-65
2022/01/28 22:36:09;;;;;;;9.07;3.33;;;0.30;99.90;;;;;;8394630;28;20242;-68
2022/01/28 22:40:19;;;;;;;11.13;3.27;;;0.30;99.90;;;;;;8389860;28;20568;-64
2022/01/28 22:44:20;;;;;;;11.17;2.60;;;0.30;99.90;;;;;;8380709;28;20184;-65
2022/01/28 22:48:20;;;;;;;9.17;2.60;;;0.40;99.90;;;;;;8392252;28;20219;-64
2022/01/28 22:52:21;;;;;;;6.63;2.70;;;0.50;99.90;;;;;;8395397;28;20193;-64
2022/01/28 22:56:24;;;;;;;10.90;2.50;;;0.50;99.90;;;;;;8374995;28;20182;-64
2022/01/28 23:00:25;;;;;;;7.47;3.00;;;0.50;99.90;;;;;;8384514;28;20180;-64
2022/01/28 23:04:26;;;;;;;6.73;2.93;;;0.60;99.90;;;;;;8385454;28;20216;-64
2022/01/28 23:08:27;;;;;;;12.10;2.57;;;0.60;99.90;;;;;;8384635;28;20189;-63
2022/01/28 23:12:28;;;;;;;8.50;2.27;;;0.70;99.90;;;;;;8398039;28;20220;-64
2022/01/28 23:16:29;;;;;;;7.87;2.43;;;0.70;99.90;;;;;;8394477;28;20212;-65